Bullhead City, Arizona
Current Conditions -  °F | °C
As of 12:35 AM on Sunday 26 Oct 2014 (Local Time) from KIFP Reporting Station
Clear Clear  
Wind Chill: 77°   Ceiling: Unl
Heat Index: 78°   Visibility: 10mi
Dew Point: 45°   Wind: 9mph
Humidity: 32%   Direction: 120°ESE
Pressure: 29.88"   Gusts: NA
Location:  35.13°N, 114.57°W
Report Text: KIFP 260735Z AUTO 12008KT 10SM CLR 25/07 A2988 RMK AO2 PWINO
Loading
Personal Weather Stations






























Interactive Weather Map
Tropical Storm Tracking
New forecast layout! Learn more

10-Day Weather Forecast

Advertisements
Track Severe Weather on mobile